createdAt,value
2023-03-03T00:01:16.056Z,13.67
2023-03-03T00:03:42.900Z,13.27
2023-03-03T00:06:11.992Z,13.97
2023-03-03T00:08:39.314Z,14.07
2023-03-03T00:11:07.834Z,13.20
2023-03-03T00:13:43.875Z,12.47
2023-03-03T00:16:24.362Z,13.50
2023-03-03T00:18:52.171Z,13.32
2023-03-03T00:21:42.204Z,13.33
2023-03-03T00:24:22.480Z,12.90
2023-03-03T00:26:55.710Z,13.47
2023-03-03T00:29:30.894Z,13.57
2023-03-03T00:32:22.750Z,13.10
2023-03-03T00:34:50.674Z,13.60
2023-03-03T00:37:29.094Z,12.77
2023-03-03T00:40:14.957Z,12.67
2023-03-03T00:42:43.563Z,12.87
2023-03-03T00:45:30.093Z,13.07
2023-03-03T00:47:57.527Z,13.05
2023-03-03T00:50:34.610Z,12.60
2023-03-03T00:53:12.926Z,13.47
2023-03-03T00:55:40.641Z,13.00
2023-03-03T00:58:07.629Z,12.27
2023-03-03T01:00:41.034Z,12.57
2023-03-03T01:03:21.680Z,13.00
2023-03-03T01:05:49.789Z,12.60
2023-03-03T01:08:17.264Z,12.43
2023-03-03T01:10:51.585Z,13.13
2023-03-03T01:13:20.426Z,12.32
2023-03-03T01:15:47.130Z,12.55
2023-03-03T01:18:14.481Z,12.48
2023-03-03T01:20:41.871Z,11.70
2023-03-03T01:23:08.893Z,11.82
2023-03-03T01:25:36.206Z,11.70
2023-03-03T01:28:03.033Z,14.35
2023-03-03T01:30:29.829Z,13.02
2023-03-03T01:32:56.811Z,12.57
2023-03-03T01:35:24.023Z,12.13
2023-03-03T01:37:50.775Z,11.53
2023-03-03T01:40:25.191Z,12.00
2023-03-03T01:42:52.753Z,12.30
2023-03-03T01:45:23.996Z,12.10
2023-03-03T01:47:58.754Z,12.38
2023-03-03T01:50:45.911Z,12.38
2023-03-03T01:53:25.954Z,12.65
2023-03-03T01:55:53.466Z,12.35
2023-03-03T01:58:29.959Z,13.77
2023-03-03T02:01:08.560Z,12.55
2023-03-03T02:03:35.723Z,12.45
2023-03-03T02:06:08.538Z,13.50
2023-03-03T02:08:41.179Z,13.40
2023-03-03T02:11:09.047Z,13.25
2023-03-03T02:13:36.815Z,13.43
2023-03-03T02:16:03.862Z,13.02
2023-03-03T02:18:30.775Z,13.43
2023-03-03T02:21:03.455Z,13.07
2023-03-03T02:23:36.165Z,12.75
2023-03-03T02:26:09.419Z,12.20
2023-03-03T02:28:37.481Z,12.40
2023-03-03T02:31:13.578Z,13.52
2023-03-03T02:33:43.843Z,12.25
2023-03-03T02:36:15.849Z,13.50
2023-03-03T02:38:53.239Z,14.38
2023-03-03T02:41:29.357Z,12.52
2023-03-03T02:44:07.883Z,13.70
2023-03-03T02:46:40.293Z,13.93
2023-03-03T02:49:09.630Z,13.75
2023-03-03T02:51:37.636Z,13.88
2023-03-03T02:54:05.358Z,12.95
2023-03-03T02:56:33.236Z,14.25
2023-03-03T02:59:00.196Z,13.88
2023-03-03T03:01:28.139Z,13.10
2023-03-03T03:03:54.957Z,14.35
2023-03-03T03:06:22.897Z,13.95
2023-03-03T03:08:50.037Z,14.43
2023-03-03T03:11:16.707Z,13.80
2023-03-03T03:13:43.558Z,15.65
2023-03-03T03:16:10.435Z,14.65
2023-03-03T03:18:37.324Z,13.35
2023-03-03T03:21:11.542Z,14.30
2023-03-03T03:23:39.691Z,13.65
2023-03-03T03:26:10.165Z,14.65
2023-03-03T03:28:37.399Z,14.77
2023-03-03T03:31:05.938Z,15.52
2023-03-03T03:33:34.559Z,14.40
2023-03-03T03:36:01.720Z,13.45
2023-03-03T03:38:29.830Z,13.55
2023-03-03T03:40:56.833Z,14.48
2023-03-03T03:43:23.753Z,14.45
2023-03-03T03:45:50.540Z,15.07
2023-03-03T03:48:19.914Z,14.52
2023-03-03T03:50:49.066Z,14.15
2023-03-03T03:53:17.112Z,14.73
2023-03-03T03:55:45.082Z,14.65
2023-03-03T03:58:17.370Z,15.15
2023-03-03T04:00:48.817Z,14.68
2023-03-03T04:03:16.307Z,14.40
2023-03-03T04:05:45.026Z,15.15
2023-03-03T04:08:12.516Z,14.10
2023-03-03T04:10:40.388Z,14.65
2023-03-03T04:13:07.349Z,14.57
2023-03-03T04:15:35.382Z,14.55
2023-03-03T04:18:03.588Z,13.77
2023-03-03T04:20:30.753Z,13.75
2023-03-03T04:22:58.187Z,14.32
2023-03-03T04:25:25.759Z,14.02
2023-03-03T04:27:54.367Z,14.68
2023-03-03T04:30:22.676Z,14.20
2023-03-03T04:32:53.273Z,15.40
2023-03-03T04:35:22.662Z,14.55
2023-03-03T04:37:49.585Z,14.35
2023-03-03T04:40:18.272Z,14.57
2023-03-03T04:42:47.690Z,15.10
2023-03-03T04:45:14.472Z,14.65
2023-03-03T04:47:41.560Z,14.60
2023-03-03T04:50:09.626Z,15.20
2023-03-03T04:52:36.954Z,14.85
2023-03-03T04:55:05.210Z,15.25
2023-03-03T04:57:32.294Z,14.07
2023-03-03T04:59:59.061Z,14.68
2023-03-03T05:02:25.797Z,14.82
2023-03-03T05:04:52.830Z,15.38
2023-03-03T05:07:20.055Z,14.18
2023-03-03T05:09:46.740Z,14.50
2023-03-03T05:12:13.445Z,14.95
2023-03-03T05:14:40.392Z,15.32
2023-03-03T05:17:07.124Z,14.82
2023-03-03T05:19:34.972Z,15.88
2023-03-03T05:22:02.128Z,15.02
2023-03-03T05:24:28.916Z,15.18
2023-03-03T05:26:55.852Z,15.63
2023-03-03T05:29:22.724Z,15.07
2023-03-03T05:31:50.156Z,15.68
2023-03-03T05:34:22.464Z,14.57
2023-03-03T05:36:55.585Z,16.38
2023-03-03T05:39:25.790Z,16.13
2023-03-03T05:41:52.636Z,16.35
2023-03-03T05:44:20.731Z,16.77
2023-03-03T05:46:47.606Z,17.02
2023-03-03T05:49:14.385Z,17.45
2023-03-03T05:51:41.111Z,16.45
2023-03-03T05:54:07.730Z,15.32
2023-03-03T05:56:34.539Z,15.77
2023-03-03T05:59:01.236Z,16.10
2023-03-03T06:01:29.322Z,15.88
2023-03-03T06:03:56.050Z,15.38
2023-03-03T06:06:22.689Z,16.35
2023-03-03T06:08:50.356Z,16.58
2023-03-03T06:11:18.645Z,15.43
2023-03-03T06:13:45.998Z,15.35
2023-03-03T06:16:13.013Z,15.98
2023-03-03T06:18:39.729Z,15.70
2023-03-03T06:21:06.497Z,15.38
2023-03-03T06:23:33.483Z,15.40
2023-03-03T06:26:00.364Z,15.68
2023-03-03T06:28:27.208Z,15.98
2023-03-03T06:30:55.183Z,17.50
2023-03-03T06:33:22.620Z,14.65
2023-03-03T06:35:54.162Z,16.05
2023-03-03T06:38:21.020Z,15.80
2023-03-03T06:40:49.557Z,16.45
2023-03-03T06:43:17.792Z,15.40
2023-03-03T06:45:45.709Z,16.40
2023-03-03T06:48:12.698Z,15.38
2023-03-03T06:50:39.515Z,17.73
2023-03-03T06:53:15.908Z,18.15
2023-03-03T06:55:44.968Z,18.02
2023-03-03T06:58:16.682Z,17.60
2023-03-03T07:00:45.484Z,16.85
2023-03-03T07:03:19.912Z,16.20
2023-03-03T07:05:46.735Z,16.15
2023-03-03T07:08:18.228Z,15.55
2023-03-03T07:10:46.653Z,15.07
2023-03-03T07:13:20.944Z,15.60
2023-03-03T07:15:49.958Z,16.10
2023-03-03T07:18:41.456Z,16.27
2023-03-03T07:21:16.939Z,16.73
2023-03-03T07:23:52.839Z,16.98
2023-03-03T07:26:23.251Z,16.52
2023-03-03T07:29:02.659Z,16.83
2023-03-03T07:31:34.327Z,15.77
2023-03-03T07:34:02.133Z,16.52
2023-03-03T07:36:38.024Z,16.05
2023-03-03T07:39:25.294Z,16.13
2023-03-03T07:42:01.356Z,15.43
2023-03-03T07:44:38.189Z,14.98
2023-03-03T07:47:21.147Z,13.93
2023-03-03T07:49:49.792Z,13.38
2023-03-03T07:52:43.899Z,13.95
2023-03-03T07:55:33.475Z,14.00
2023-03-03T07:58:16.447Z,12.80
2023-03-03T08:00:47.339Z,13.73
2023-03-03T08:03:19.911Z,14.18
2023-03-03T08:05:50.866Z,13.88
2023-03-03T08:08:30.639Z,13.98
2023-03-03T08:10:59.107Z,12.75
2023-03-03T08:13:37.798Z,13.52
2023-03-03T08:16:25.589Z,13.23
2023-03-03T08:18:56.721Z,13.35
2023-03-03T08:21:24.986Z,13.70
2023-03-03T08:23:53.607Z,14.05
2023-03-03T08:26:21.915Z,13.82
2023-03-03T08:28:48.862Z,13.75
2023-03-03T08:31:28.043Z,14.68
2023-03-03T08:34:03.660Z,13.38
2023-03-03T08:36:33.674Z,13.60
2023-03-03T08:39:01.582Z,13.10
2023-03-03T08:41:28.613Z,13.20
2023-03-03T08:43:57.053Z,13.38
2023-03-03T08:46:23.857Z,13.25
2023-03-03T08:48:51.449Z,12.90
2023-03-03T08:51:18.343Z,11.93
2023-03-03T08:53:45.401Z,12.10
2023-03-03T08:56:14.634Z,11.70
2023-03-03T08:59:01.335Z,11.68
2023-03-03T09:01:29.605Z,11.70
2023-03-03T09:03:56.891Z,12.45
2023-03-03T09:06:23.842Z,12.05
2023-03-03T09:08:50.662Z,12.60
2023-03-03T09:11:27.858Z,13.48
2023-03-03T09:14:02.747Z,12.75
2023-03-03T09:16:37.146Z,13.82
2023-03-03T09:19:23.584Z,13.38
2023-03-03T09:21:57.694Z,13.38
2023-03-03T09:24:36.256Z,13.57
2023-03-03T09:27:03.268Z,13.13
2023-03-03T09:29:31.961Z,13.05
2023-03-03T09:32:02.310Z,14.63
2023-03-03T09:34:42.429Z,13.95
2023-03-03T09:37:40.516Z,14.35
2023-03-03T09:40:26.933Z,14.57
2023-03-03T09:43:05.441Z,12.93
2023-03-03T09:46:07.801Z,14.93
2023-03-03T09:48:48.812Z,14.10
2023-03-03T09:51:39.538Z,13.90
2023-03-03T09:54:13.714Z,13.40
2023-03-03T09:56:59.101Z,14.13
2023-03-03T09:59:50.480Z,14.65
2023-03-03T10:02:56.778Z,13.88
2023-03-03T10:05:32.918Z,13.82
2023-03-03T10:08:08.917Z,14.48
2023-03-03T10:11:00.211Z,14.30
2023-03-03T10:13:53.978Z,14.32
2023-03-03T10:16:41.627Z,15.32
2023-03-03T10:19:38.844Z,14.35
2023-03-03T10:22:31.814Z,14.25
2023-03-03T10:24:58.931Z,14.27
2023-03-03T10:27:53.598Z,14.35
2023-03-03T10:30:39.938Z,14.30
2023-03-03T10:33:27.222Z,14.30
2023-03-03T10:36:38.136Z,13.75
2023-03-03T10:39:21.047Z,15.15
2023-03-03T10:42:14.404Z,13.50
2023-03-03T10:45:20.032Z,13.55
2023-03-03T10:47:59.210Z,13.25
2023-03-03T10:50:30.249Z,13.57
2023-03-03T10:53:11.127Z,14.10
2023-03-03T10:56:00.909Z,13.75
2023-03-03T10:58:33.832Z,13.75
2023-03-03T11:01:04.161Z,14.73
2023-03-03T11:03:50.016Z,14.98
2023-03-03T11:06:22.437Z,13.75
2023-03-03T11:08:58.767Z,13.80
2023-03-03T11:11:29.879Z,13.60
2023-03-03T11:14:06.051Z,13.35
2023-03-03T11:17:01.419Z,13.77
2023-03-03T11:19:32.403Z,12.98
2023-03-03T11:22:14.876Z,12.93
2023-03-03T11:25:03.036Z,12.32
2023-03-03T11:27:38.836Z,12.35
2023-03-03T11:30:30.369Z,13.05
2023-03-03T11:33:01.151Z,13.02
2023-03-03T11:36:05.808Z,12.20
2023-03-03T11:38:58.335Z,13.23
2023-03-03T11:41:43.424Z,11.57
2023-03-03T11:44:14.166Z,12.88
2023-03-03T11:47:12.781Z,11.40
2023-03-03T11:49:51.100Z,12.32
2023-03-03T11:52:49.381Z,12.43
2023-03-03T11:55:22.591Z,13.13
2023-03-03T11:58:08.950Z,12.20
2023-03-03T12:01:03.995Z,12.30
2023-03-03T12:03:40.102Z,12.17
2023-03-03T12:06:14.188Z,12.20
2023-03-03T12:09:08.718Z,12.20
2023-03-03T12:11:59.967Z,11.38
2023-03-03T12:14:45.554Z,13.10
2023-03-03T12:17:40.408Z,11.27
2023-03-03T12:20:29.298Z,12.00
2023-03-03T12:23:13.022Z,11.33
2023-03-03T12:26:08.429Z,10.30
2023-03-03T12:28:38.613Z,12.37
2023-03-03T12:31:26.860Z,10.80
2023-03-03T12:34:15.294Z,11.30
2023-03-03T12:36:51.327Z,13.30
2023-03-03T12:39:48.527Z,12.30
2023-03-03T12:42:35.490Z,12.43
2023-03-03T12:45:13.155Z,11.77
2023-03-03T12:47:46.707Z,11.10
2023-03-03T12:50:28.677Z,12.73
2023-03-03T12:53:10.907Z,11.97
2023-03-03T12:55:53.863Z,11.73
2023-03-03T12:58:47.058Z,11.13
2023-03-03T13:01:34.109Z,11.10
2023-03-03T13:04:23.940Z,10.90
2023-03-03T13:07:04.225Z,11.90
2023-03-03T13:09:43.227Z,10.90
2023-03-03T13:12:40.690Z,10.53
2023-03-03T13:15:17.185Z,10.47
2023-03-03T13:17:49.464Z,10.60
2023-03-03T13:20:25.441Z,10.73
2023-03-03T13:22:57.483Z,10.97
2023-03-03T13:25:44.167Z,10.60
2023-03-03T13:28:34.985Z,11.27
2023-03-03T13:31:09.830Z,12.13
2023-03-03T13:33:37.343Z,11.90
2023-03-03T13:36:09.507Z,10.70
2023-03-03T13:38:51.691Z,11.10
2023-03-03T13:41:21.548Z,11.00
2023-03-03T13:44:21.270Z,11.10
2023-03-03T13:46:57.349Z,10.70
2023-03-03T13:49:42.539Z,11.33
2023-03-03T13:52:12.265Z,11.63
2023-03-03T13:54:58.149Z,10.50
2023-03-03T13:57:52.545Z,10.03
2023-03-03T14:00:39.184Z,9.57
2023-03-03T14:03:15.642Z,10.30
2023-03-03T14:05:50.223Z,11.03
2023-03-03T14:08:48.202Z,10.50
2023-03-03T14:11:26.646Z,9.57
2023-03-03T14:14:05.731Z,9.63
2023-03-03T14:16:45.256Z,9.60
2023-03-03T14:19:17.464Z,10.83
2023-03-03T14:21:52.496Z,10.57
2023-03-03T14:24:25.396Z,9.60
2023-03-03T14:27:00.231Z,9.73
2023-03-03T14:29:29.835Z,10.00
2023-03-03T14:32:01.700Z,9.63
2023-03-03T14:34:41.853Z,9.33
2023-03-03T14:37:25.285Z,9.73
2023-03-03T14:40:37.142Z,9.60
2023-03-03T14:43:20.728Z,10.23
2023-03-03T14:45:48.006Z,9.60
2023-03-03T14:48:28.065Z,10.27
2023-03-03T14:51:23.454Z,9.37
2023-03-03T14:53:50.568Z,8.20
2023-03-03T14:56:33.810Z,9.70
2023-03-03T14:59:19.764Z,8.93
2023-03-03T15:01:46.680Z,8.67
2023-03-03T15:04:16.311Z,9.03
2023-03-03T15:06:46.928Z,8.23
2023-03-03T15:09:37.480Z,8.23
2023-03-03T15:12:33.761Z,8.30
2023-03-03T15:15:08.901Z,7.80
2023-03-03T15:17:50.306Z,8.47
2023-03-03T15:20:25.296Z,7.90
2023-03-03T15:23:22.180Z,7.00
2023-03-03T15:26:07.172Z,8.03
2023-03-03T15:28:59.457Z,9.03
2023-03-03T15:31:52.333Z,6.50
2023-03-03T15:34:30.384Z,7.80
2023-03-03T15:37:22.728Z,7.50
2023-03-03T15:40:14.039Z,7.00
2023-03-03T15:43:02.677Z,7.07
2023-03-03T15:45:33.839Z,6.87
2023-03-03T15:48:36.112Z,7.00
2023-03-03T15:52:02.532Z,6.17
2023-03-03T15:54:46.021Z,6.50
2023-03-03T15:57:25.060Z,6.53
2023-03-03T15:59:59.130Z,6.10
2023-03-03T16:02:50.601Z,6.60
2023-03-03T16:05:25.705Z,5.77
2023-03-03T16:08:00.779Z,6.10
2023-03-03T16:10:39.672Z,6.63
2023-03-03T16:13:35.615Z,5.60
2023-03-03T16:16:13.890Z,6.47
2023-03-03T16:18:49.696Z,6.47
2023-03-03T16:21:22.279Z,6.30
2023-03-03T16:24:32.293Z,6.60
2023-03-03T16:27:28.256Z,5.47
2023-03-03T16:30:27.628Z,5.43
2023-03-03T16:33:16.196Z,6.30
2023-03-03T16:35:50.502Z,5.97
2023-03-03T16:38:22.191Z,5.93
2023-03-03T16:40:57.108Z,6.50
2023-03-03T16:43:26.829Z,6.00
2023-03-03T16:45:58.935Z,5.57
2023-03-03T16:48:46.219Z,5.90
2023-03-03T16:51:21.089Z,5.83
2023-03-03T16:53:51.040Z,5.57
2023-03-03T16:56:25.289Z,5.10
2023-03-03T16:58:58.091Z,5.77
2023-03-03T17:01:40.161Z,4.93
2023-03-03T17:04:32.037Z,5.23
2023-03-03T17:07:12.932Z,5.80
2023-03-03T17:09:45.696Z,5.53
2023-03-03T17:12:21.119Z,5.10
2023-03-03T17:14:58.235Z,5.53
2023-03-03T17:17:57.145Z,5.17
2023-03-03T17:20:36.666Z,6.00
2023-03-03T17:23:20.011Z,5.63
2023-03-03T17:26:11.771Z,5.47
2023-03-03T17:29:23.146Z,6.23
2023-03-03T17:32:25.077Z,5.23
2023-03-03T17:35:15.324Z,5.90
2023-03-03T17:37:48.613Z,5.77
2023-03-03T17:40:27.984Z,5.70
2023-03-03T17:43:04.172Z,5.93
2023-03-03T17:45:35.688Z,6.57
2023-03-03T17:48:29.037Z,6.10
2023-03-03T17:51:36.964Z,5.73
2023-03-03T17:54:12.950Z,6.37
2023-03-03T17:56:58.558Z,5.57
2023-03-03T17:59:52.562Z,6.63
2023-03-03T18:02:38.801Z,8.03
2023-03-03T18:05:42.928Z,6.97
2023-03-03T18:08:37.804Z,10.43
2023-03-03T18:11:10.833Z,10.10
2023-03-03T18:14:14.353Z,8.40
2023-03-03T18:17:02.935Z,7.87
2023-03-03T18:20:03.897Z,6.30
2023-03-03T18:22:53.172Z,6.00
2023-03-03T18:25:23.329Z,6.20
2023-03-03T18:28:02.092Z,6.97
2023-03-03T18:30:55.473Z,6.70
2023-03-03T18:33:43.019Z,6.77
2023-03-03T18:36:32.886Z,7.00
2023-03-03T18:39:01.616Z,6.77
2023-03-03T18:41:30.412Z,6.80
2023-03-03T18:44:29.835Z,6.87
2023-03-03T18:46:58.890Z,6.23
2023-03-03T18:49:50.111Z,6.90
2023-03-03T18:52:23.066Z,6.43
2023-03-03T18:55:13.116Z,7.20
2023-03-03T18:57:40.020Z,6.87
2023-03-03T19:00:33.921Z,6.93
2023-03-03T19:03:01.306Z,6.20
2023-03-03T19:05:35.267Z,7.00
2023-03-03T19:08:23.454Z,7.07
2023-03-03T19:11:03.403Z,6.87
2023-03-03T19:13:33.184Z,7.03
2023-03-03T19:16:26.114Z,5.30
2023-03-03T19:18:52.973Z,6.03
2023-03-03T19:21:28.352Z,5.87
2023-03-03T19:24:03.609Z,5.33
2023-03-03T19:26:58.055Z,5.93
2023-03-03T19:29:46.845Z,5.60
2023-03-03T19:32:38.380Z,6.13
2023-03-03T19:35:33.140Z,6.27
2023-03-03T19:38:20.374Z,6.00
2023-03-03T19:41:12.500Z,6.30
2023-03-03T19:43:54.723Z,6.17
2023-03-03T19:46:46.263Z,6.10
2023-03-03T19:49:41.116Z,6.07
2023-03-03T19:52:14.846Z,6.03
2023-03-03T19:54:46.386Z,6.37
2023-03-03T19:57:34.786Z,5.60
2023-03-03T20:00:26.085Z,5.70
2023-03-03T20:03:02.868Z,6.27
2023-03-03T20:05:35.056Z,6.60
2023-03-03T20:08:29.977Z,5.83
2023-03-03T20:11:05.713Z,6.57
2023-03-03T20:13:50.846Z,5.80
2023-03-03T20:16:37.744Z,5.63
2023-03-03T20:19:07.611Z,5.33
2023-03-03T20:21:42.716Z,6.53
2023-03-03T20:24:31.110Z,5.33
2023-03-03T20:27:05.485Z,4.63
2023-03-03T20:29:44.692Z,5.07
2023-03-03T20:32:36.580Z,5.07
2023-03-03T20:35:16.507Z,4.90
2023-03-03T20:37:53.998Z,4.37
2023-03-03T20:40:54.438Z,4.07
2023-03-03T20:43:26.320Z,4.27
2023-03-03T20:45:59.186Z,4.10
2023-03-03T20:48:48.150Z,4.30
2023-03-03T20:51:25.257Z,3.83
2023-03-03T20:54:07.311Z,4.43
2023-03-03T20:57:15.887Z,4.10
2023-03-03T21:00:03.117Z,4.03
2023-03-03T21:02:35.946Z,4.50
2023-03-03T21:05:16.067Z,4.00
2023-03-03T21:08:07.154Z,4.53
2023-03-03T21:10:36.484Z,4.53
2023-03-03T21:13:40.982Z,4.70
2023-03-03T21:16:20.264Z,4.60
2023-03-03T21:19:04.492Z,4.77
2023-03-03T21:21:37.201Z,5.07
2023-03-03T21:24:04.519Z,4.27
2023-03-03T21:26:50.278Z,4.63
2023-03-03T21:29:34.591Z,4.50
2023-03-03T21:32:07.848Z,4.70
2023-03-03T21:34:39.875Z,4.80
2023-03-03T21:37:08.200Z,4.97
2023-03-03T21:39:46.974Z,5.00
2023-03-03T21:42:16.271Z,4.67
2023-03-03T21:44:46.640Z,4.77
2023-03-03T21:47:16.268Z,5.43
2023-03-03T21:49:44.203Z,5.17
2023-03-03T21:52:12.852Z,5.50
2023-03-03T21:54:40.682Z,5.43
2023-03-03T21:57:07.508Z,5.37
2023-03-03T21:59:34.268Z,6.43
2023-03-03T22:02:01.462Z,5.90
2023-03-03T22:04:28.661Z,6.10
2023-03-03T22:06:56.151Z,6.30
2023-03-03T22:09:23.733Z,6.13
2023-03-03T22:11:50.924Z,6.33
2023-03-03T22:14:18.254Z,6.17
2023-03-03T22:16:45.647Z,6.87
2023-03-03T22:19:12.501Z,5.83
2023-03-03T22:21:39.932Z,6.37
2023-03-03T22:24:07.447Z,5.90
2023-03-03T22:26:35.051Z,5.70
2023-03-03T22:29:02.324Z,6.53
2023-03-03T22:31:29.151Z,6.30
2023-03-03T22:33:56.106Z,6.63
2023-03-03T22:36:22.987Z,6.23
2023-03-03T22:38:50.020Z,6.00
2023-03-03T22:41:17.455Z,6.13
2023-03-03T22:43:45.007Z,6.10
2023-03-03T22:46:12.067Z,5.93
2023-03-03T22:48:39.631Z,5.90
2023-03-03T22:51:06.829Z,6.40
2023-03-03T22:53:34.088Z,6.10
2023-03-03T22:56:01.462Z,6.20
2023-03-03T22:58:29.484Z,6.10
2023-03-03T23:00:56.339Z,5.97
2023-03-03T23:03:23.725Z,6.03
2023-03-03T23:05:51.941Z,6.00
2023-03-03T23:08:26.497Z,6.50
2023-03-03T23:10:56.231Z,6.13
2023-03-03T23:13:25.281Z,6.33
2023-03-03T23:15:52.267Z,6.50
2023-03-03T23:18:19.082Z,5.67
2023-03-03T23:20:51.088Z,6.53
2023-03-03T23:23:20.663Z,6.37
2023-03-03T23:25:47.678Z,6.93
2023-03-03T23:28:15.684Z,7.90
2023-03-03T23:30:43.012Z,8.13
2023-03-03T23:33:09.834Z,8.40
2023-03-03T23:35:44.404Z,8.20
2023-03-03T23:38:15.459Z,9.07
2023-03-03T23:40:44.777Z,8.07
2023-03-03T23:43:11.738Z,8.77
2023-03-03T23:45:38.625Z,8.50
2023-03-03T23:48:06.054Z,8.90
2023-03-03T23:50:34.158Z,8.17
2023-03-03T23:53:00.788Z,7.90
2023-03-03T23:55:27.601Z,8.73
2023-03-03T23:57:54.421Z,8.57
